Oostburg, Wisconsin
Current Conditions -  °F | °C
As of 11:53 PM on Friday 19 Dec 2014 (Local Time) from KSBM Reporting Station
Overcast Overcast  
Wind Chill: 22°   Ceiling: 2600
Heat Index: 28°   Visibility: 10mi
Dew Point: 21°   Wind: 6mph
Humidity: 75%   Direction: 310°NW
Pressure: 30.26"   Gusts: NA
Location:  43.62°N, 87.79°W
Report Text: KSBM 200553Z AUTO 31005KT 10SM OVC026 M02/M06 A3026 RMK AO2 SLP257 T10221061 11017 21028 410061061 53002
Loading
Personal Weather Stations






























Interactive Weather Map New forecast layout! Learn more

10-Day Weather Forecast

Advertisements
Track Severe Weather on mobile